Aérodrome :
LOGIN :

S'inscrire | Disclaimer

   EN    FR    IT 

 










Légende :    VFR   VFR Marginal   IFR   IFR Intensif   IFR Très Intensif
Visi : 
Plafond : 
>= 8 km
>= 3000ft
5 à 8 km
1000 à 3000 ft
1500m à 5 km
500 à 1000 ft
800 à 1500m
200 à 500 ft
< 800m
< 200 ft
Symboles :   Orages  Brouillard  Fortes neiges  Fortes précipitations  Vent > 20 kt
SIGMETs :   Divers  Orages  Givrage  Turbulence  Onde Orograph.  Cendres Volcan.







- Altitude de l'aérodrome : 935 ft


EBFS - Florennes

DERNIER METAR :
  • 191325Z AUTO 28009KT 9999 SCT018/// BKN033/// OVC038/// 06/02 Q1021 WHT

METARs EXPIRÉS :
  • 191304Z AUTO 28010KT 9999 SCT018/// OVC038/// 07/02 Q1021 WHT
  • 191255Z AUTO 28010KT 9999 FEW018/// BKN037/// OVC042/// 06/01 Q1021 BLU
  • 191233Z AUTO 28011KT 9999 FEW018/// SCT021/// BKN038/// 06/01 Q1021 WHT
  • 191225Z AUTO 27010KT 9999 FEW018/// BKN037/// 06/01 Q1021 BLU
  • 191155Z AUTO 27010KT 9999 BKN039/// 06/01 Q1021 BLU
  • 191125Z AUTO 28008KT 9999 BKN040/// 05/01 Q1021 BLU
  • 191055Z AUTO 27009KT 9999 FEW014/// BKN044/// 05/01 Q1021 BLU

Prévision TAF périmée.
Pas de NOTAMs connus pour ce terrain.



MET'MAP, la Météo Aéronautique d'un coup d'oeil ! - Copyright ORBIFLY Décembre 2007 - Disclaimer

ORBIFLY MET'MAP TEAM :

Programmation & Développement : Alexandra Zaïnal
Conception & Développement : Baudouin d'Aumeries
Co-Programmation & Développement : Marc-Olivier Méhu
Soutien technique & logistique : Manuel Goepfert

Contact : metmap@orbifly.com




SOURCES & CREDITS :

   NOAA